Terminal Aerodrome Forecast
Issued by NWS Louisville, KY

Home | Current Version | Previous Version | Text Only | Print | Product List | Glossary On
Versions: 1 2 3 4 5 6 7 8 9 10 11 12 13 14 15 16 17 18 19
000
FTUS43 KLMK 261201 AAA
TAFLEX
TAF AMD
KLEX 261201Z 2612/2712 20011KT 2SM RA BKN045
     FM261330 18012KT P6SM BKN045
     FM262000 21013KT P6SM SCT050
     FM270300 17005KT P6SM SCT200
      TEMPO 2710/2712 5SM BR=

USA.gov is the U.S. government's official web portal to all federal, state and local government web resources and services.